Time;durP1;ratioP1;P1;durP2;ratioP2;P2;SDS_P1;SDS_P2;PMS_P1;PMS_P2;Temp;Humidity;BMP_temperature;BMP_pressure;BME280_temperature;BME280_humidity;BME280_pressure;Samples;Min_cycle;Max_cycle;Signal;HPM_P1;HPM_P2
2022/07/27 00:00:08;;;;;;;5.60;1.97;;;15.10;99.90;;;;;;5080473;28;20454;-71
2022/07/27 00:02:57;;;;;;;5.30;2.73;;;15.10;99.90;;;;;;5070394;28;20489;-71
2022/07/27 00:05:46;;;;;;;5.80;1.80;;;15.10;99.90;;;;;;5072677;28;20465;-71
2022/07/27 00:08:34;;;;;;;5.00;1.70;;;15.10;99.90;;;;;;5071050;28;20454;-71
2022/07/27 00:11:23;;;;;;;4.13;1.90;;;15.10;99.90;;;;;;5066360;28;20453;-71
2022/07/27 00:14:11;;;;;;;6.30;1.80;;;15.10;99.90;;;;;;5068481;28;20535;-70
2022/07/27 00:16:59;;;;;;;3.63;1.50;;;15.10;99.90;;;;;;5065315;28;20553;-71
2022/07/27 00:19:49;;;;;;;4.23;1.63;;;15.20;99.90;;;;;;5069981;28;20450;-71
2022/07/27 00:22:37;;;;;;;3.40;1.70;;;15.10;99.90;;;;;;5070059;28;20519;-73
2022/07/27 00:25:26;;;;;;;3.73;1.90;;;15.10;99.90;;;;;;5070175;28;21149;-71
2022/07/27 00:28:15;;;;;;;4.50;1.90;;;15.10;99.90;;;;;;5068794;28;20871;-71
2022/07/27 00:31:03;;;;;;;2.80;1.50;;;15.10;99.90;;;;;;5069823;28;21001;-71
2022/07/27 00:33:53;;;;;;;5.67;1.83;;;15.10;99.90;;;;;;5074999;28;21018;-71
2022/07/27 00:36:45;;;;;;;3.87;1.37;;;15.10;99.90;;;;;;5064924;28;20690;-71
2022/07/27 00:39:35;;;;;;;4.17;1.70;;;15.20;99.90;;;;;;5072055;28;20450;-71
2022/07/27 00:42:26;;;;;;;4.00;1.87;;;15.20;99.90;;;;;;5065216;28;20705;-71
2022/07/27 00:45:15;;;;;;;2.87;1.70;;;15.10;99.90;;;;;;5066152;28;20538;-71
2022/07/27 00:48:03;;;;;;;5.87;1.73;;;15.00;99.90;;;;;;5075384;28;20600;-71
2022/07/27 00:50:52;;;;;;;4.20;1.97;;;15.10;99.90;;;;;;5069168;28;20959;-71
2022/07/27 00:53:41;;;;;;;3.67;1.67;;;15.00;99.90;;;;;;5068007;28;20518;-71
2022/07/27 00:56:30;;;;;;;3.57;2.00;;;15.00;99.90;;;;;;5054891;28;20465;-71
2022/07/27 00:59:20;;;;;;;2.37;1.40;;;15.00;99.90;;;;;;5062510;28;20595;-71
2022/07/27 01:02:09;;;;;;;4.90;1.63;;;15.10;99.90;;;;;;5062445;28;20948;-71
2022/07/27 01:04:59;;;;;;;4.63;2.00;;;15.10;99.90;;;;;;5068195;28;20454;-71
2022/07/27 01:07:49;;;;;;;5.80;1.80;;;15.10;99.90;;;;;;5067304;28;20442;-71
2022/07/27 01:10:39;;;;;;;4.00;2.03;;;15.00;99.90;;;;;;5067936;28;20472;-71
2022/07/27 01:13:28;;;;;;;3.33;1.50;;;15.10;99.90;;;;;;5072119;28;20478;-71
2022/07/27 01:16:16;;;;;;;3.93;2.10;;;15.10;99.90;;;;;;5064979;28;20615;-71
2022/07/27 01:19:05;;;;;;;3.40;1.80;;;15.10;99.90;;;;;;5073923;28;20542;-71
2022/07/27 01:21:55;;;;;;;3.43;1.53;;;15.10;99.90;;;;;;5065727;28;20507;-71
2022/07/27 01:24:43;;;;;;;3.10;1.70;;;15.10;99.90;;;;;;5060882;28;20545;-71
2022/07/27 01:27:32;;;;;;;4.70;2.00;;;15.10;99.90;;;;;;5060158;28;20458;-71
2022/07/27 01:30:26;;;;;;;3.50;1.40;;;15.10;99.90;;;;;;5087321;28;20450;-70
2022/07/27 01:33:15;;;;;;;3.60;1.40;;;15.10;99.90;;;;;;5091378;28;20520;-70
2022/07/27 01:36:04;;;;;;;3.53;1.70;;;15.00;99.90;;;;;;5114102;22;20491;-74
2022/07/27 01:38:54;;;;;;;2.67;1.30;;;15.10;99.90;;;;;;5111431;27;20569;-74
2022/07/27 01:41:42;;;;;;;2.87;1.53;;;15.10;99.90;;;;;;5106577;27;20939;-74
2022/07/27 01:44:31;;;;;;;4.60;2.50;;;15.10;99.90;;;;;;5105010;27;21049;-73
2022/07/27 01:47:19;;;;;;;3.43;1.73;;;15.10;99.90;;;;;;5110802;27;20551;-73
2022/07/27 01:50:08;;;;;;;1.80;1.33;;;15.00;99.90;;;;;;5117806;27;20447;-73
2022/07/27 01:52:57;;;;;;;3.20;1.60;;;15.10;99.90;;;;;;5103249;27;20456;-74
2022/07/27 01:55:48;;;;;;;4.97;1.37;;;15.10;99.90;;;;;;5106548;27;20604;-74
2022/07/27 01:58:36;;;;;;;5.77;1.60;;;15.00;99.90;;;;;;5094826;28;20563;-73
2022/07/27 02:01:25;;;;;;;2.83;1.20;;;15.00;99.90;;;;;;5099879;27;21028;-74
2022/07/27 02:04:13;;;;;;;3.10;1.57;;;14.90;99.90;;;;;;5108186;27;20460;-74
2022/07/27 02:07:01;;;;;;;5.30;1.53;;;15.00;99.90;;;;;;5108722;28;20581;-73
2022/07/27 02:09:50;;;;;;;8.43;2.20;;;14.90;99.90;;;;;;5091437;28;20448;-74
2022/07/27 02:12:38;;;;;;;2.40;1.53;;;15.00;99.90;;;;;;5106145;28;20913;-74
2022/07/27 02:15:28;;;;;;;2.83;1.50;;;15.00;99.90;;;;;;5107299;28;20517;-74
2022/07/27 02:18:32;;;;;;;4.70;1.63;;;15.00;99.90;;;;;;5102305;28;20480;-74
2022/07/27 02:21:24;;;;;;;4.37;1.83;;;15.00;99.90;;;;;;5095613;28;20788;-74
2022/07/27 02:24:12;;;;;;;3.37;1.20;;;15.00;99.90;;;;;;5105552;28;20567;-74
2022/07/27 02:27:00;;;;;;;5.60;1.70;;;15.00;99.90;;;;;;5107734;28;20538;-74
2022/07/27 02:29:51;;;;;;;3.13;1.37;;;14.90;99.90;;;;;;5103589;28;20465;-74
2022/07/27 02:32:43;;;;;;;3.67;1.80;;;14.90;99.90;;;;;;5108062;28;20527;-73
2022/07/27 02:35:32;;;;;;;4.70;2.07;;;14.90;99.90;;;;;;5093331;28;20563;-74
2022/07/27 02:38:20;;;;;;;2.07;1.70;;;14.90;99.90;;;;;;5106918;28;21075;-73
2022/07/27 02:41:08;;;;;;;6.00;1.47;;;14.90;99.90;;;;;;5106471;28;20612;-74
2022/07/27 02:43:58;;;;;;;4.47;1.60;;;14.90;99.90;;;;;;5109866;28;20544;-73
2022/07/27 02:46:49;;;;;;;4.97;1.53;;;14.90;99.90;;;;;;5104625;28;20504;-73
2022/07/27 02:49:37;;;;;;;3.33;1.57;;;14.90;99.90;;;;;;5113434;28;20530;-73
2022/07/27 02:52:26;;;;;;;4.67;1.50;;;14.90;99.90;;;;;;5101260;28;20496;-73
2022/07/27 02:55:14;;;;;;;3.17;1.67;;;15.00;99.90;;;;;;5107799;28;20492;-73
2022/07/27 02:58:02;;;;;;;3.37;1.20;;;15.00;99.90;;;;;;5104818;28;20582;-74
2022/07/27 03:00:53;;;;;;;4.07;1.33;;;14.90;99.90;;;;;;5102010;28;20505;-74
2022/07/27 03:03:47;;;;;;;3.63;1.33;;;14.90;99.90;;;;;;5109553;28;20899;-74
2022/07/27 03:06:35;;;;;;;3.03;1.50;;;14.90;99.90;;;;;;5105461;28;21155;-73
2022/07/27 03:09:23;;;;;;;2.53;1.30;;;14.80;99.90;;;;;;5107794;28;20523;-74
2022/07/27 03:12:20;;;;;;;3.77;1.80;;;14.80;99.90;;;;;;5113630;28;20439;-74
2022/07/27 03:15:10;;;;;;;3.73;1.60;;;14.80;99.90;;;;;;5106955;28;20548;-73
2022/07/27 03:17:58;;;;;;;2.87;1.43;;;14.80;99.90;;;;;;5106612;28;20882;-73
2022/07/27 03:20:48;;;;;;;2.83;1.37;;;14.80;99.90;;;;;;5107146;28;20974;-74
2022/07/27 03:23:37;;;;;;;3.80;1.80;;;14.90;99.90;;;;;;5097756;28;20448;-73
2022/07/27 03:26:29;;;;;;;4.07;1.33;;;14.80;99.90;;;;;;5109408;27;20475;-74
2022/07/27 03:29:17;;;;;;;4.73;1.60;;;14.80;99.90;;;;;;5108755;27;20885;-75
2022/07/27 03:32:06;;;;;;;4.60;1.63;;;14.80;99.90;;;;;;5103047;28;20444;-74
2022/07/27 03:34:54;;;;;;;1.90;1.63;;;14.80;99.90;;;;;;5112195;27;20589;-74
2022/07/27 03:37:44;;;;;;;7.37;1.77;;;14.80;99.90;;;;;;5108372;27;20953;-74
2022/07/27 03:40:32;;;;;;;3.17;1.90;;;14.70;99.90;;;;;;5101602;27;20453;-74
2022/07/27 03:43:21;;;;;;;2.40;1.60;;;14.70;99.90;;;;;;5107379;27;20824;-74
2022/07/27 03:46:11;;;;;;;2.10;1.57;;;14.70;99.90;;;;;;5107580;27;20549;-74
2022/07/27 03:48:59;;;;;;;2.77;1.30;;;14.70;99.90;;;;;;5107787;28;20459;-74
2022/07/27 03:52:02;;;;;;;3.67;1.50;;;14.70;99.90;;;;;;5109529;27;20456;-74
2022/07/27 03:54:52;;;;;;;3.77;1.60;;;14.70;99.90;;;;;;5106259;28;20498;-74
2022/07/27 03:57:40;;;;;;;2.47;1.50;;;14.70;99.90;;;;;;5110163;28;21058;-74
2022/07/27 04:00:28;;;;;;;3.07;2.30;;;14.60;99.90;;;;;;5106973;28;20535;-74
2022/07/27 04:03:17;;;;;;;3.33;1.90;;;14.70;99.90;;;;;;5110436;27;20439;-74
2022/07/27 04:06:05;;;;;;;4.20;1.90;;;14.60;99.90;;;;;;5110813;27;20934;-74
2022/07/27 04:08:56;;;;;;;2.80;1.80;;;14.60;99.90;;;;;;5112462;27;21022;-74
2022/07/27 04:12:02;;;;;;;2.03;1.60;;;14.60;99.90;;;;;;5104045;27;20448;-74
2022/07/27 04:14:50;;;;;;;6.63;1.77;;;14.60;99.90;;;;;;5107592;27;20505;-74
2022/07/27 04:17:39;;;;;;;6.73;1.97;;;14.60;99.90;;;;;;5111362;28;20443;-74
2022/07/27 04:20:44;;;;;;;4.57;1.70;;;14.60;99.90;;;;;;5106464;27;20652;-74
2022/07/27 04:23:32;;;;;;;3.60;1.70;;;14.50;99.90;;;;;;5106657;28;20459;-74
2022/07/27 04:26:25;;;;;;;2.63;1.37;;;14.50;99.90;;;;;;5102862;27;20463;-74
2022/07/27 04:29:15;;;;;;;4.30;1.93;;;14.50;99.90;;;;;;5109229;27;20587;-74
2022/07/27 04:32:10;;;;;;;4.83;1.73;;;14.50;99.90;;;;;;5099950;27;20504;-74
2022/07/27 04:34:58;;;;;;;2.60;1.60;;;14.50;99.90;;;;;;5106939;27;20911;-74
2022/07/27 04:37:46;;;;;;;4.40;1.67;;;14.50;99.90;;;;;;5105556;27;20868;-74
2022/07/27 04:40:46;;;;;;;4.77;1.60;;;14.50;99.90;;;;;;5114731;27;20484;-73
2022/07/27 04:43:35;;;;;;;5.20;1.87;;;14.50;99.90;;;;;;5119606;27;20460;-73
2022/07/27 04:46:25;;;;;;;2.30;1.70;;;14.60;99.90;;;;;;5119093;28;20716;-74
2022/07/27 04:49:14;;;;;;;4.70;1.83;;;14.60;99.90;;;;;;5107925;27;20441;-73
2022/07/27 04:52:03;;;;;;;4.63;2.10;;;14.60;99.90;;;;;;5108475;27;20451;-73
2022/07/27 04:54:52;;;;;;;4.13;1.70;;;14.60;99.90;;;;;;5104111;28;20537;-73
2022/07/27 04:57:41;;;;;;;3.43;1.83;;;14.60;99.90;;;;;;5105046;28;20529;-76
2022/07/27 05:00:30;;;;;;;3.80;1.57;;;14.70;99.90;;;;;;5104473;28;20472;-74
2022/07/27 05:03:19;;;;;;;5.70;1.77;;;14.60;99.90;;;;;;5100797;27;20521;-73
2022/07/27 05:06:08;;;;;;;5.67;1.60;;;14.70;99.90;;;;;;5109514;27;20814;-74
2022/07/27 05:08:56;;;;;;;3.77;1.60;;;14.70;99.90;;;;;;5107311;27;20444;-74
2022/07/27 05:11:45;;;;;;;2.70;1.63;;;14.80;99.90;;;;;;5106781;27;20751;-74
2022/07/27 05:14:39;;;;;;;3.93;1.93;;;14.80;99.90;;;;;;5104785;27;20457;-74
2022/07/27 05:17:27;;;;;;;3.90;1.70;;;14.80;99.90;;;;;;5107890;28;20467;-73
2022/07/27 05:20:17;;;;;;;6.43;1.90;;;14.80;99.90;;;;;;5106921;27;20558;-74
2022/07/27 05:23:05;;;;;;;7.53;2.07;;;14.80;99.90;;;;;;5109637;28;20644;-74
2022/07/27 05:25:54;;;;;;;4.50;1.80;;;14.80;99.90;;;;;;5101097;27;20528;-74
2022/07/27 05:28:42;;;;;;;5.57;2.10;;;14.80;99.90;;;;;;5105631;27;20451;-74
2022/07/27 05:31:36;;;;;;;4.30;1.80;;;14.90;99.90;;;;;;5108560;28;20931;-74
2022/07/27 05:34:25;;;;;;;4.53;1.83;;;14.90;99.90;;;;;;5105979;28;20445;-74
2022/07/27 05:37:15;;;;;;;3.63;1.70;;;14.90;99.90;;;;;;5108881;28;20537;-74
2022/07/27 05:40:04;;;;;;;5.63;1.67;;;15.00;99.90;;;;;;5099602;27;20569;-74
2022/07/27 05:42:52;;;;;;;2.53;1.40;;;15.00;99.90;;;;;;5101428;28;21192;-74
2022/07/27 05:45:41;;;;;;;4.27;1.40;;;15.10;99.90;;;;;;5105453;28;20551;-74
2022/07/27 05:48:29;;;;;;;4.67;1.50;;;15.00;99.90;;;;;;5104818;28;20447;-75
2022/07/27 05:51:18;;;;;;;2.33;1.10;;;15.10;99.90;;;;;;5106347;28;20444;-74
2022/07/27 05:54:07;;;;;;;7.77;2.50;;;15.10;99.90;;;;;;5100754;27;20852;-74
2022/07/27 05:56:56;;;;;;;4.50;1.50;;;15.10;99.90;;;;;;5109118;28;20504;-74
2022/07/27 05:59:44;;;;;;;6.10;1.53;;;15.10;99.90;;;;;;5104751;28;20548;-72
2022/07/27 06:02:34;;;;;;;2.80;1.33;;;15.10;99.90;;;;;;5097897;27;20540;-73
2022/07/27 06:05:22;;;;;;;2.77;1.70;;;15.20;99.90;;;;;;5078789;28;20451;-73
2022/07/27 06:08:09;;;;;;;2.17;1.60;;;15.20;99.90;;;;;;5097353;27;20865;-73
2022/07/27 06:10:59;;;;;;;2.20;1.20;;;15.20;99.90;;;;;;5104091;28;20436;-73
2022/07/27 06:13:49;;;;;;;4.13;1.40;;;15.20;99.90;;;;;;5106159;28;20444;-73
2022/07/27 06:16:37;;;;;;;4.03;1.43;;;15.20;99.90;;;;;;5103972;28;20550;-73
2022/07/27 06:19:26;;;;;;;2.67;1.30;;;15.10;99.90;;;;;;5104129;28;20990;-73
2022/07/27 06:22:23;;;;;;;9.73;1.73;;;15.10;99.90;;;;;;5103973;28;20448;-74
2022/07/27 06:25:13;;;;;;;2.60;1.63;;;15.10;99.90;;;;;;5105449;28;20471;-73
2022/07/27 06:28:03;;;;;;;3.13;1.30;;;15.20;99.90;;;;;;5096246;28;21203;-74
2022/07/27 06:30:53;;;;;;;2.70;1.60;;;15.20;99.90;;;;;;5098602;28;20444;-74
2022/07/27 06:33:42;;;;;;;3.70;1.40;;;15.20;99.90;;;;;;5102188;28;20501;-74
2022/07/27 06:36:35;;;;;;;3.33;1.47;;;15.30;99.90;;;;;;5099480;28;20486;-74
2022/07/27 06:39:23;;;;;;;1.93;1.10;;;15.30;99.90;;;;;;5098332;28;20514;-73
2022/07/27 06:42:13;;;;;;;4.30;1.70;;;15.30;99.90;;;;;;5100332;28;20529;-73
2022/07/27 06:45:03;;;;;;;2.80;1.50;;;15.30;99.90;;;;;;5096706;28;20484;-73
2022/07/27 06:47:51;;;;;;;5.33;1.90;;;15.30;99.90;;;;;;5103340;28;20980;-74
2022/07/27 06:50:39;;;;;;;2.53;1.40;;;15.40;99.90;;;;;;5092620;28;20960;-73
2022/07/27 06:53:27;;;;;;;3.00;1.30;;;15.40;99.90;;;;;;5099500;28;20440;-71
2022/07/27 06:56:23;;;;;;;4.93;1.57;;;15.40;99.90;;;;;;5087409;28;20472;-71
2022/07/27 06:59:11;;;;;;;5.27;1.80;;;15.50;99.90;;;;;;5099562;28;20444;-70
2022/07/27 07:02:02;;;;;;;2.40;1.80;;;15.60;99.90;;;;;;5106218;27;20455;-71
2022/07/27 07:04:50;;;;;;;3.97;1.80;;;15.60;99.90;;;;;;5110646;27;20469;-70
2022/07/27 07:07:39;;;;;;;4.77;1.50;;;15.70;99.90;;;;;;5107514;27;20443;-71
2022/07/27 07:10:27;;;;;;;3.13;1.43;;;15.80;99.90;;;;;;5103537;27;21041;-70
2022/07/27 07:13:16;;;;;;;2.70;1.77;;;15.90;99.90;;;;;;5100913;27;20564;-70
2022/07/27 07:16:05;;;;;;;4.50;1.50;;;15.90;99.90;;;;;;5090157;27;20507;-70
2022/07/27 07:18:55;;;;;;;2.80;1.90;;;16.00;99.90;;;;;;5100836;27;20529;-70
2022/07/27 07:21:43;;;;;;;3.67;1.20;;;16.10;99.90;;;;;;5099678;27;20976;-70
2022/07/27 07:24:31;;;;;;;4.67;1.77;;;16.20;99.90;;;;;;5104078;27;20893;-70
2022/07/27 07:27:22;;;;;;;2.83;1.50;;;16.20;99.90;;;;;;5103778;27;21053;-70
2022/07/27 07:30:11;;;;;;;1.93;1.47;;;16.20;99.90;;;;;;5098888;27;20441;-71
2022/07/27 07:33:00;;;;;;;3.30;1.53;;;16.20;99.90;;;;;;5095375;27;20530;-73
2022/07/27 07:35:50;;;;;;;3.00;1.57;;;16.30;99.90;;;;;;5102136;27;20510;-76
2022/07/27 07:38:30;;;;;;;2.90;1.63;;;16.30;99.90;;;;;;5091870;27;20495;-75
2022/07/27 07:41:20;;;;;;;3.97;1.40;;;16.30;99.90;;;;;;5102894;27;20476;-75
2022/07/27 07:44:08;;;;;;;3.40;1.50;;;16.40;99.90;;;;;;5103745;27;20456;-75
2022/07/27 07:46:57;;;;;;;4.13;1.40;;;16.50;99.90;;;;;;5096116;28;20465;-74
2022/07/27 07:49:45;;;;;;;3.83;2.27;;;16.50;99.90;;;;;;5083953;28;20489;-75
2022/07/27 07:52:35;;;;;;;7.73;1.47;;;16.60;99.90;;;;;;5086771;28;20448;-75
2022/07/27 07:55:26;;;;;;;4.70;1.80;;;16.60;99.90;;;;;;5086887;28;20668;-76
2022/07/27 07:58:15;;;;;;;5.47;1.50;;;16.70;99.90;;;;;;5083881;28;20483;-75
2022/07/27 08:01:03;;;;;;;5.20;1.63;;;16.80;99.90;;;;;;5083701;28;20475;-74
2022/07/27 08:03:52;;;;;;;5.00;1.50;;;16.90;99.90;;;;;;5078188;28;20534;-75
2022/07/27 08:06:40;;;;;;;12.73;2.30;;;16.90;99.90;;;;;;5074916;28;21364;-75
2022/07/27 08:09:30;;;;;;;1.77;1.30;;;16.90;99.90;;;;;;5086501;28;20539;-76
2022/07/27 08:12:18;;;;;;;3.93;1.70;;;16.90;99.90;;;;;;5082891;28;20540;-75
2022/07/27 08:15:08;;;;;;;6.63;1.70;;;16.80;99.90;;;;;;5076798;28;20972;-75
2022/07/27 08:17:56;;;;;;;3.17;1.50;;;16.80;99.90;;;;;;5088277;28;22595;-75
2022/07/27 08:20:45;;;;;;;4.70;1.43;;;16.80;99.90;;;;;;5086633;28;20476;-76
2022/07/27 08:23:33;;;;;;;4.10;1.80;;;16.70;99.90;;;;;;5084215;28;20526;-75
2022/07/27 08:26:23;;;;;;;5.70;1.73;;;16.70;99.90;;;;;;5083038;28;20526;-75
2022/07/27 08:29:11;;;;;;;5.07;1.93;;;16.70;99.90;;;;;;5083914;28;21045;-75
2022/07/27 08:32:01;;;;;;;6.13;1.73;;;16.60;99.90;;;;;;5070645;28;20493;-75
2022/07/27 08:34:53;;;;;;;3.17;1.30;;;16.60;99.90;;;;;;5075120;28;20476;-75
2022/07/27 08:37:41;;;;;;;3.47;1.57;;;16.70;99.90;;;;;;5068694;28;20481;-75
2022/07/27 08:40:40;;;;;;;3.67;1.50;;;16.70;99.90;;;;;;5074892;28;20574;-75
2022/07/27 08:43:33;;;;;;;4.53;1.40;;;16.80;99.90;;;;;;5078057;28;20460;-74
2022/07/27 08:46:25;;;;;;;1.80;1.40;;;16.80;99.90;;;;;;5076925;28;21027;-75
2022/07/27 08:49:15;;;;;;;3.83;1.40;;;16.90;99.90;;;;;;5084139;28;20568;-77
2022/07/27 08:52:05;;;;;;;4.40;1.60;;;17.00;99.90;;;;;;5080666;28;20457;-76
2022/07/27 08:54:54;;;;;;;3.80;1.80;;;17.10;99.90;;;;;;5084631;28;20479;-76
2022/07/27 08:57:42;;;;;;;4.77;1.30;;;17.20;99.90;;;;;;5088777;28;20531;-76
2022/07/27 09:00:33;;;;;;;2.30;1.30;;;17.30;99.90;;;;;;5088277;28;20995;-76
2022/07/27 09:03:23;;;;;;;4.27;1.60;;;17.40;99.90;;;;;;5080033;28;20573;-79
2022/07/27 09:06:11;;;;;;;2.23;1.30;;;17.50;99.90;;;;;;5076194;28;20437;-76
2022/07/27 09:09:00;;;;;;;2.20;1.23;;;17.50;99.90;;;;;;5076692;28;20452;-78
2022/07/27 09:12:04;;;;;;;2.43;1.77;;;17.60;99.90;;;;;;5076555;28;20458;-75
2022/07/27 09:15:04;;;;;;;3.97;1.17;;;17.70;99.90;;;;;;5077227;28;20446;-75
2022/07/27 09:17:53;;;;;;;4.03;1.80;;;17.70;99.90;;;;;;5083483;28;20524;-74
2022/07/27 09:20:43;;;;;;;3.07;1.53;;;17.80;99.90;;;;;;5077760;28;20505;-77
2022/07/27 09:23:36;;;;;;;3.30;1.27;;;17.80;99.90;;;;;;5076212;28;20468;-77
2022/07/27 09:26:26;;;;;;;3.60;1.43;;;17.90;99.90;;;;;;5081390;28;20476;-77
2022/07/27 09:29:21;;;;;;;4.37;1.70;;;18.00;99.90;;;;;;5083930;28;20459;-77
2022/07/27 09:32:14;;;;;;;2.07;1.40;;;18.00;99.90;;;;;;5083732;28;20494;-77
2022/07/27 09:35:19;;;;;;;1.97;1.37;;;18.00;99.90;;;;;;5081327;28;20495;-76
2022/07/27 09:38:18;;;;;;;2.97;1.47;;;18.00;99.90;;;;;;5081161;28;20481;-79
2022/07/27 09:41:07;;;;;;;2.73;1.00;;;18.00;99.90;;;;;;5079414;28;20487;-79
2022/07/27 09:44:00;;;;;;;2.50;1.10;;;18.00;99.90;;;;;;5081854;28;20484;-77
2022/07/27 09:47:21;;;;;;;2.40;1.00;;;18.10;99.90;;;;;;5079182;28;20466;-76
2022/07/27 09:50:19;;;;;;;1.57;1.20;;;18.10;99.90;;;;;;5083683;28;20448;-77
2022/07/27 09:53:20;;;;;;;2.80;1.10;;;18.20;99.90;;;;;;5076898;28;20456;-78
2022/07/27 09:56:30;;;;;;;2.20;1.30;;;18.40;99.90;;;;;;5079187;28;20500;-76
2022/07/27 09:59:19;;;;;;;2.07;1.40;;;18.60;99.90;;;;;;5078296;28;20871;-79
2022/07/27 10:02:07;;;;;;;2.80;1.10;;;18.60;99.90;;;;;;5079267;28;20885;-78
2022/07/27 10:04:55;;;;;;;3.13;1.57;;;18.60;99.90;;;;;;5071664;28;20506;-77
2022/07/27 10:07:45;;;;;;;2.57;1.40;;;18.50;99.90;;;;;;5082445;28;20567;-77
2022/07/27 10:10:34;;;;;;;3.87;1.50;;;18.40;99.90;;;;;;5076628;28;20530;-77
2022/07/27 10:13:23;;;;;;;5.10;1.90;;;18.40;99.90;;;;;;5075375;28;20495;-77
2022/07/27 10:16:14;;;;;;;2.03;1.30;;;18.40;99.90;;;;;;5079129;28;20536;-76
2022/07/27 10:19:09;;;;;;;9.13;1.87;;;18.40;99.90;;;;;;5077716;28;20464;-78
2022/07/27 10:21:57;;;;;;;3.10;1.40;;;18.50;99.90;;;;;;5071896;28;20626;-77
2022/07/27 10:24:58;;;;;;;4.43;1.30;;;18.50;99.90;;;;;;5076648;28;20465;-76
2022/07/27 10:27:47;;;;;;;4.37;1.43;;;18.60;99.90;;;;;;5068445;28;20592;-77
2022/07/27 10:30:36;;;;;;;3.33;1.40;;;18.60;99.90;;;;;;5084261;28;20522;-76
2022/07/27 10:33:43;;;;;;;2.37;1.20;;;18.60;99.90;;;;;;5079063;28;20499;-78
2022/07/27 10:36:49;;;;;;;3.60;1.47;;;18.70;99.90;;;;;;5085829;28;20489;-77
2022/07/27 10:39:41;;;;;;;2.20;1.30;;;18.80;99.90;;;;;;5085654;28;21064;-75
2022/07/27 10:42:31;;;;;;;3.00;1.27;;;18.90;99.90;;;;;;5088336;28;20559;-75
2022/07/27 10:45:19;;;;;;;3.03;1.40;;;18.90;99.90;;;;;;5083388;28;20546;-75
2022/07/27 10:48:08;;;;;;;1.93;1.10;;;18.90;99.90;;;;;;5083877;28;20956;-75
2022/07/27 10:50:56;;;;;;;1.47;0.93;;;18.80;99.90;;;;;;5083773;28;20983;-75
2022/07/27 10:53:46;;;;;;;3.67;1.30;;;18.90;99.90;;;;;;5083399;28;20543;-77
2022/07/27 10:56:55;;;;;;;2.70;0.97;;;19.00;99.90;;;;;;5084571;28;20575;-74
2022/07/27 10:59:51;;;;;;;2.00;1.03;;;19.10;99.90;;;;;;5085064;28;20502;-75
2022/07/27 11:03:05;;;;;;;2.60;1.17;;;19.10;99.90;;;;;;5078025;28;21047;-75
2022/07/27 11:05:54;;;;;;;2.10;0.90;;;19.00;99.90;;;;;;5078395;28;20472;-75
2022/07/27 11:09:03;;;;;;;2.20;1.00;;;19.00;99.90;;;;;;5080797;28;20452;-77
2022/07/27 11:12:13;;;;;;;2.93;1.10;;;19.10;99.90;;;;;;5077974;28;20440;-76
2022/07/27 11:15:03;;;;;;;2.63;1.43;;;19.20;99.90;;;;;;5076907;28;21029;-76
2022/07/27 11:17:52;;;;;;;3.47;1.17;;;19.40;99.90;;;;;;5079360;28;20531;-76
2022/07/27 11:20:50;;;;;;;4.43;1.30;;;19.40;99.90;;;;;;5087255;28;20479;-77
2022/07/27 11:23:38;;;;;;;2.27;1.17;;;19.40;99.90;;;;;;5080832;28;20629;-77
2022/07/27 11:26:41;;;;;;;3.50;1.60;;;19.40;99.90;;;;;;5079389;28;20472;-77
2022/07/27 11:29:34;;;;;;;4.93;2.17;;;19.40;99.90;;;;;;5083370;28;20565;-76
2022/07/27 11:32:34;;;;;;;1.77;1.20;;;19.40;99.90;;;;;;5083815;28;20471;-78
2022/07/27 11:35:23;;;;;;;4.50;1.97;;;19.30;99.90;;;;;;5079482;28;20791;-76
2022/07/27 11:38:12;;;;;;;2.47;1.40;;;19.30;99.90;;;;;;5080551;28;20483;-76
2022/07/27 11:41:00;;;;;;;2.80;1.57;;;19.30;99.90;;;;;;5077043;28;20618;-76
2022/07/27 11:44:10;;;;;;;4.97;1.77;;;19.30;99.90;;;;;;5085640;28;20457;-77
2022/07/27 11:47:01;;;;;;;3.30;1.17;;;19.30;99.90;;;;;;5075399;28;20475;-77
2022/07/27 11:49:51;;;;;;;4.07;1.50;;;19.30;99.90;;;;;;5085681;28;20529;-76
2022/07/27 11:52:40;;;;;;;2.80;1.03;;;19.40;99.90;;;;;;5076413;28;20449;-77
2022/07/27 11:55:28;;;;;;;2.20;1.20;;;19.50;99.90;;;;;;5063777;28;20450;-79
2022/07/27 11:58:17;;;;;;;1.50;1.40;;;19.50;99.90;;;;;;5064150;28;20487;-76
2022/07/27 12:01:05;;;;;;;1.50;1.00;;;19.50;99.90;;;;;;5057712;28;20458;-73
2022/07/27 12:04:06;;;;;;;2.77;1.43;;;19.50;99.90;;;;;;5072741;28;20476;-74
2022/07/27 12:07:03;;;;;;;5.00;1.70;;;19.30;99.90;;;;;;5067976;28;21338;-76
2022/07/27 12:09:54;;;;;;;2.90;1.30;;;19.30;99.90;;;;;;5070020;28;20462;-75
2022/07/27 12:12:48;;;;;;;3.93;1.57;;;19.20;99.90;;;;;;5067446;28;20838;-77
2022/07/27 12:15:37;;;;;;;3.57;1.80;;;19.10;99.90;;;;;;5069234;28;20544;-75
2022/07/27 12:18:41;;;;;;;5.23;2.30;;;19.10;99.90;;;;;;5072070;28;20456;-76
2022/07/27 12:21:30;;;;;;;2.87;1.70;;;19.10;99.90;;;;;;5082946;28;20465;-77
2022/07/27 12:24:32;;;;;;;4.77;1.90;;;19.10;99.90;;;;;;5073308;28;20482;-77
2022/07/27 12:27:21;;;;;;;3.17;1.63;;;19.00;99.90;;;;;;5071203;28;20481;-75
2022/07/27 12:30:11;;;;;;;1.50;1.17;;;19.00;99.90;;;;;;5055792;28;20515;-75
2022/07/27 12:33:00;;;;;;;4.10;1.80;;;18.80;99.90;;;;;;5070734;28;20555;-76
2022/07/27 12:35:49;;;;;;;3.43;1.40;;;18.80;99.90;;;;;;5064399;28;20457;-75
2022/07/27 12:38:38;;;;;;;9.20;1.57;;;18.80;99.90;;;;;;5067926;28;20548;-76
2022/07/27 12:41:30;;;;;;;4.07;1.70;;;18.80;99.90;;;;;;5069864;28;20460;-76
2022/07/27 12:44:18;;;;;;;2.60;1.33;;;18.90;99.90;;;;;;5071020;28;20476;-76
2022/07/27 12:50:28;;;;;;;3.00;1.30;;;18.90;99.90;;;;;;5006451;28;20544;-76
2022/07/27 12:53:17;;;;;;;10.23;2.17;;;18.90;99.90;;;;;;5064081;28;20445;-76
2022/07/27 12:56:08;;;;;;;2.30;1.20;;;18.90;99.90;;;;;;5054446;28;20465;-76
2022/07/27 12:59:03;;;;;;;2.50;1.57;;;19.00;99.90;;;;;;5062700;28;20458;-76
2022/07/27 13:01:52;;;;;;;1.80;1.17;;;19.00;99.90;;;;;;5065401;28;20633;-75
2022/07/27 13:04:40;;;;;;;3.33;1.13;;;19.10;99.90;;;;;;5070909;28;20472;-74
2022/07/27 13:07:28;;;;;;;4.93;1.20;;;19.30;99.90;;;;;;5072259;28;20583;-77
2022/07/27 13:10:18;;;;;;;3.67;1.30;;;19.50;99.90;;;;;;5075858;28;20559;-74
2022/07/27 13:13:07;;;;;;;4.13;1.40;;;19.50;99.90;;;;;;5078613;28;20449;-76
2022/07/27 13:15:57;;;;;;;3.43;1.30;;;19.60;99.90;;;;;;5072429;28;20463;-75
2022/07/27 13:18:45;;;;;;;4.80;1.70;;;19.70;99.90;;;;;;5072062;28;20456;-75
2022/07/27 13:21:35;;;;;;;2.37;1.30;;;19.70;99.90;;;;;;5075152;28;20453;-75
2022/07/27 13:24:24;;;;;;;3.60;1.30;;;19.70;99.90;;;;;;5068030;28;20477;-76
2022/07/27 13:27:13;;;;;;;2.27;1.47;;;19.70;99.90;;;;;;5060117;28;20859;-76
2022/07/27 13:30:02;;;;;;;2.50;1.27;;;19.80;99.90;;;;;;5073309;28;20464;-75
2022/07/27 13:32:52;;;;;;;3.80;1.20;;;19.80;99.90;;;;;;5076974;28;20449;-75
2022/07/27 13:35:41;;;;;;;2.40;1.40;;;19.80;99.90;;;;;;5080065;28;20468;-75
2022/07/27 13:38:29;;;;;;;3.63;1.10;;;19.70;99.90;;;;;;5112598;22;20565;-72
2022/07/27 13:41:17;;;;;;;3.20;1.17;;;19.60;99.90;;;;;;5096771;28;21382;-72
2022/07/27 13:44:06;;;;;;;2.40;1.30;;;19.50;99.90;;;;;;5104868;27;20475;-72
2022/07/27 13:47:02;;;;;;;2.30;1.27;;;19.50;99.90;;;;;;5099456;27;21041;-73
2022/07/27 13:49:51;;;;;;;5.00;1.90;;;19.50;99.90;;;;;;5113267;27;20452;-75
2022/07/27 13:52:40;;;;;;;3.70;1.83;;;19.60;99.90;;;;;;5129046;27;20479;-75
2022/07/27 13:55:34;;;;;;;1.43;1.20;;;19.60;99.90;;;;;;5115412;27;20509;-75
2022/07/27 13:58:22;;;;;;;5.33;1.73;;;19.70;99.90;;;;;;5114506;27;20934;-74
2022/07/27 14:01:12;;;;;;;2.80;1.20;;;19.80;99.90;;;;;;5113910;27;20483;-70
2022/07/27 14:04:04;;;;;;;3.80;1.60;;;19.90;99.90;;;;;;5106477;27;20479;-74
2022/07/27 14:06:54;;;;;;;1.90;1.17;;;20.10;99.90;;;;;;5118219;27;20446;-74
2022/07/27 14:12:48;;;;;;;4.57;1.23;;;20.60;99.90;;;;;;5115537;27;20466;-74
2022/07/27 14:15:37;;;;;;;3.00;1.63;;;20.60;99.90;;;;;;5114298;27;21005;-74
2022/07/27 14:18:41;;;;;;;3.20;1.63;;;20.70;99.90;;;;;;5111888;27;20913;-75
2022/07/27 14:21:30;;;;;;;2.73;1.40;;;20.60;99.90;;;;;;5103266;27;20527;-74
2022/07/27 14:24:20;;;;;;;3.10;1.67;;;20.60;99.90;;;;;;5109202;27;20467;-74
2022/07/27 14:27:09;;;;;;;2.60;1.43;;;20.60;99.90;;;;;;5123773;27;20596;-72
2022/07/27 14:29:57;;;;;;;3.53;1.33;;;20.60;99.90;;;;;;5099316;27;20463;-72
2022/07/27 14:32:45;;;;;;;3.67;1.57;;;20.70;99.90;;;;;;5107453;27;20604;-72
2022/07/27 14:35:34;;;;;;;2.93;1.37;;;21.10;99.90;;;;;;5103318;27;20466;-70
2022/07/27 14:38:28;;;;;;;4.20;1.33;;;21.80;99.90;;;;;;5096504;27;20840;-70
2022/07/27 14:41:19;;;;;;;3.20;1.50;;;22.70;99.90;;;;;;5109759;27;20455;-70
2022/07/27 14:44:07;;;;;;;4.30;1.67;;;23.50;99.90;;;;;;5115889;27;20559;-70
2022/07/27 14:46:55;;;;;;;2.60;1.10;;;23.70;99.90;;;;;;5104072;27;20577;-71
2022/07/27 14:49:46;;;;;;;2.73;1.40;;;23.50;99.90;;;;;;5102773;27;20464;-70
2022/07/27 14:52:36;;;;;;;2.70;1.20;;;23.50;99.90;;;;;;5102456;27;20460;-71
2022/07/27 14:55:24;;;;;;;3.17;1.20;;;23.40;99.90;;;;;;5112792;27;20515;-70